Sand Draw, Wyoming
Current Conditions -  °F | °C
As of 12:53 AM on Friday 31 Oct 2014 (Local Time) from KLND Reporting Station
Clear Clear  
Wind Chill: 41°   Ceiling: Unl
Heat Index: 41°   Visibility: 10mi
Dew Point: 27°   Wind: 3mph
Humidity: 57%   Direction: 250°WSW
Pressure: 30.23"   Gusts: NA
Location:  43.1005°N, 108.934°W
Report Text: KLND 310653Z AUTO 25003KT 10SM CLR 05/M03 A3023 RMK AO2 SLP221 T00501028 401560011 TSNO
Loading
Personal Weather Stations






























Interactive Weather Map
Tropical Storm Tracking
New forecast layout! Learn more

10-Day Weather Forecast

Advertisements
Track Severe Weather on mobile